Airfield :
LOGIN :

Register | Disclaimer

   EN    FR    IT 

 










Legend :    VFR   Marginal VFR   IFR   Intensive IFR   Very Intensive IFR
Visi :
Ceiling :
>= 8 km
>= 3000ft
5 to 8 km
1000 to 3000 ft
1500m to 5 km
500 to 1000 ft
800 to 1500m
200 to 500 ft
< 800m
< 200 ft
Symbols :   Thunderstorms  Fog  Heavy snow  Heavy precipitations  Wind > 20 kt
SIGMETs :     Misc.  Thunderstorms  Icing  Turbulence  Mountain Waves  Volcanic Ashes






- Airport Elevation : 245 ft


ETHS - Fassberg

CURRENT METAR :
  • 021520Z 27014KT 9999 BKN040 09/M01 Q1007 BLU

EXPIRED METARs :
  • 021501Z 27017KT 9999 BKN040 09/M01 Q1008 BLU FCST CANCEL
  • 021420Z 27013KT 9999 BKN040 09/M02 Q1008 BLU BLU TEMPO BLU+
  • 021320Z 27016KT 9999 BKN040 09/M02 Q1009 BLU BLU TEMPO BLU+

TAF AMD TAF ETHS
Valid from the 02 at 14:00 until the 02 at 23:00 UTC


021440Z 0214/0223 26012KT 9999 NSW BKN050
TEMPO 0214/0217 27015G25KT 9999 NSW SCT050
PROB30 0220/0223 26012G22KT 7000 -RA SCT020 BKN030 CANCEL 1500



MET'MAP, your aeronautical weather chart ! - Copyright ORBIFLY December 2007 - Disclaimer

ORBIFLY MET'MAP TEAM :

Programming & Development : Alexandra Zaïnal
Concept & original design : Baudouin d'Aumeries
Assistance for programming : Marc-Olivier Méhu
Technical & hardware support : Manuel Goepfert

Contact : metmap@orbifly.com




SOURCES & CREDITS :

   NOAA